createdAt,value
2023-03-01T00:02:13.900Z,21.03
2023-03-01T00:04:40.561Z,20.03
2023-03-01T00:07:07.224Z,19.77
2023-03-01T00:09:34.037Z,20.43
2023-03-01T00:12:09.155Z,20.33
2023-03-01T00:14:36.645Z,20.93
2023-03-01T00:17:05.895Z,20.40
2023-03-01T00:19:38.573Z,21.07
2023-03-01T00:22:11.512Z,20.73
2023-03-01T00:24:42.955Z,21.40
2023-03-01T00:27:11.031Z,21.10
2023-03-01T00:29:42.727Z,21.40
2023-03-01T00:32:14.537Z,21.43
2023-03-01T00:34:44.006Z,21.87
2023-03-01T00:37:16.279Z,20.77
2023-03-01T00:39:43.024Z,21.47
2023-03-01T00:42:16.920Z,21.63
2023-03-01T00:44:45.805Z,21.20
2023-03-01T00:47:14.716Z,21.10
2023-03-01T00:49:41.792Z,22.10
2023-03-01T00:52:09.801Z,20.93
2023-03-01T00:54:42.964Z,20.40
2023-03-01T00:57:09.666Z,20.43
2023-03-01T00:59:48.130Z,20.80
2023-03-01T01:02:16.486Z,21.37
2023-03-01T01:04:43.139Z,20.77
2023-03-01T01:07:11.918Z,20.93
2023-03-01T01:09:38.906Z,20.67
2023-03-01T01:12:06.034Z,21.30
2023-03-01T01:14:41.511Z,19.93
2023-03-01T01:17:13.649Z,20.13
2023-03-01T01:19:43.488Z,20.17
2023-03-01T01:22:13.071Z,20.47
2023-03-01T01:24:39.789Z,21.20
2023-03-01T01:27:09.645Z,21.10
2023-03-01T01:29:36.779Z,21.00
2023-03-01T01:32:05.113Z,21.73
2023-03-01T01:34:31.848Z,20.53
2023-03-01T01:37:03.672Z,21.40
2023-03-01T01:39:33.671Z,21.83
2023-03-01T01:42:02.858Z,21.30
2023-03-01T01:44:36.912Z,21.73
2023-03-01T01:47:09.720Z,21.70
2023-03-01T01:49:58.218Z,20.73
2023-03-01T01:52:32.905Z,21.77
2023-03-01T01:55:24.054Z,22.20
2023-03-01T01:57:54.378Z,22.00
2023-03-01T02:00:24.368Z,20.83
2023-03-01T02:03:10.152Z,20.80
2023-03-01T02:05:59.648Z,21.10
2023-03-01T02:08:37.149Z,21.63
2023-03-01T02:11:05.299Z,20.07
2023-03-01T02:13:34.371Z,20.93
2023-03-01T02:16:05.278Z,20.03
2023-03-01T02:18:34.237Z,20.77
2023-03-01T02:21:11.380Z,20.80
2023-03-01T02:23:40.992Z,19.20
2023-03-01T02:26:16.478Z,20.10
2023-03-01T02:28:51.613Z,20.57
2023-03-01T02:31:40.042Z,18.87
2023-03-01T02:34:08.615Z,20.07
2023-03-01T02:36:38.529Z,20.07
2023-03-01T02:39:08.515Z,19.57
2023-03-01T02:41:39.132Z,20.03
2023-03-01T02:44:08.583Z,19.80
2023-03-01T02:46:47.921Z,20.13
2023-03-01T02:49:36.629Z,19.37
2023-03-01T02:52:42.156Z,20.27
2023-03-01T02:55:19.077Z,20.40
2023-03-01T02:57:51.941Z,19.77
2023-03-01T03:00:28.386Z,18.93
2023-03-01T03:02:58.841Z,19.73
2023-03-01T03:05:30.690Z,19.27
2023-03-01T03:07:59.828Z,19.83
2023-03-01T03:10:32.946Z,19.53
2023-03-01T03:13:02.042Z,18.33
2023-03-01T03:15:30.723Z,19.60
2023-03-01T03:18:01.168Z,19.27
2023-03-01T03:20:29.756Z,19.47
2023-03-01T03:23:13.766Z,19.93
2023-03-01T03:25:43.365Z,19.30
2023-03-01T03:28:12.860Z,19.80
2023-03-01T03:30:40.945Z,19.17
2023-03-01T03:33:13.463Z,18.70
2023-03-01T03:35:45.837Z,19.53
2023-03-01T03:38:22.290Z,18.47
2023-03-01T03:40:55.494Z,19.37
2023-03-01T03:43:24.318Z,19.97
2023-03-01T03:45:52.000Z,19.03
2023-03-01T03:48:24.244Z,19.60
2023-03-01T03:50:56.053Z,20.23
2023-03-01T03:53:27.936Z,18.57
2023-03-01T03:55:57.275Z,19.63
2023-03-01T03:58:25.169Z,18.50
2023-03-01T04:00:56.945Z,18.73
2023-03-01T04:03:29.041Z,19.43
2023-03-01T04:05:57.911Z,18.63
2023-03-01T04:08:25.207Z,18.17
2023-03-01T04:10:54.563Z,19.40
2023-03-01T04:13:23.272Z,19.10
2023-03-01T04:15:56.418Z,19.47
2023-03-01T04:18:25.566Z,19.80
2023-03-01T04:20:53.323Z,19.27
2023-03-01T04:23:23.132Z,19.87
2023-03-01T04:25:56.244Z,20.17
2023-03-01T04:28:28.125Z,20.00
2023-03-01T04:30:58.417Z,19.60
2023-03-01T04:33:26.254Z,19.53
2023-03-01T04:35:55.925Z,18.87
2023-03-01T04:38:23.106Z,19.63
2023-03-01T04:40:52.941Z,20.63
2023-03-01T04:43:22.496Z,20.47
2023-03-01T04:45:52.442Z,19.77
2023-03-01T04:48:23.090Z,19.87
2023-03-01T04:50:50.896Z,19.70
2023-03-01T04:53:19.699Z,19.37
2023-03-01T04:55:46.388Z,20.23
2023-03-01T04:58:15.227Z,20.20
2023-03-01T05:00:46.829Z,19.93
2023-03-01T05:03:19.142Z,19.37
2023-03-01T05:05:47.677Z,19.17
2023-03-01T05:08:18.409Z,19.17
2023-03-01T05:10:54.256Z,19.00
2023-03-01T05:13:22.125Z,19.30
2023-03-01T05:16:02.239Z,19.50
2023-03-01T05:18:33.056Z,19.03
2023-03-01T05:21:06.453Z,19.47
2023-03-01T05:23:39.461Z,19.63
2023-03-01T05:26:13.503Z,19.13
2023-03-01T05:29:07.043Z,19.80
2023-03-01T05:31:35.602Z,19.67
2023-03-01T05:34:05.097Z,19.63
2023-03-01T05:36:32.064Z,19.23
2023-03-01T05:39:03.008Z,20.23
2023-03-01T05:41:32.253Z,20.87
2023-03-01T05:44:00.169Z,19.57
2023-03-01T05:46:26.810Z,19.77
2023-03-01T05:48:56.299Z,20.47
2023-03-01T05:51:27.992Z,20.23
2023-03-01T05:53:56.822Z,19.80
2023-03-01T05:56:25.676Z,20.27
2023-03-01T05:58:55.696Z,20.27
2023-03-01T06:01:22.343Z,19.07
2023-03-01T06:03:52.312Z,20.63
2023-03-01T06:06:18.988Z,19.47
2023-03-01T06:08:52.000Z,19.57
2023-03-01T06:11:21.423Z,21.63
2023-03-01T06:13:53.262Z,21.27
2023-03-01T06:16:29.520Z,21.77
2023-03-01T06:18:56.446Z,20.37
2023-03-01T06:21:29.339Z,21.43
2023-03-01T06:24:00.293Z,20.77
2023-03-01T06:26:29.799Z,21.00
2023-03-01T06:28:59.389Z,22.00
2023-03-01T06:31:31.603Z,22.40
2023-03-01T06:34:05.200Z,22.30
2023-03-01T06:36:32.919Z,22.27
2023-03-01T06:38:59.598Z,22.20
2023-03-01T06:41:26.940Z,22.30
2023-03-01T06:44:03.678Z,23.53
2023-03-01T06:46:33.346Z,24.03
2023-03-01T06:49:03.657Z,23.30
2023-03-01T06:51:31.560Z,21.97
2023-03-01T06:54:01.720Z,22.00
2023-03-01T06:56:33.011Z,24.27
2023-03-01T06:59:03.803Z,24.20
2023-03-01T07:01:32.792Z,24.83
2023-03-01T07:03:59.436Z,24.80
2023-03-01T07:06:26.600Z,23.90
2023-03-01T07:09:00.934Z,24.90
2023-03-01T07:11:27.661Z,24.60
2023-03-01T07:13:56.401Z,23.87
2023-03-01T07:16:24.350Z,24.80
2023-03-01T07:18:52.948Z,23.57
2023-03-01T07:21:19.578Z,26.13
2023-03-01T07:24:09.690Z,35.37
2023-03-01T07:26:39.725Z,29.93
2023-03-01T07:29:08.028Z,25.40
2023-03-01T07:31:34.734Z,24.87
2023-03-01T07:34:09.096Z,24.70
2023-03-01T07:36:40.424Z,24.83
2023-03-01T07:39:07.624Z,25.13
2023-03-01T07:41:41.115Z,25.33
2023-03-01T07:44:08.831Z,25.47
2023-03-01T07:46:35.485Z,25.73
2023-03-01T07:49:05.668Z,24.97
2023-03-01T07:51:34.131Z,25.77
2023-03-01T07:54:03.503Z,24.90
2023-03-01T07:56:30.760Z,25.30
2023-03-01T07:59:13.056Z,25.80
2023-03-01T08:01:49.280Z,25.63
2023-03-01T08:04:18.941Z,26.23
2023-03-01T08:06:46.676Z,26.20
2023-03-01T08:09:14.248Z,25.47
2023-03-01T08:11:43.169Z,25.97
2023-03-01T08:14:10.191Z,25.27
2023-03-01T08:16:37.631Z,25.10
2023-03-01T08:19:08.391Z,25.83
2023-03-01T08:21:38.313Z,25.37
2023-03-01T08:24:12.754Z,25.37
2023-03-01T08:26:42.018Z,25.63
2023-03-01T08:29:08.996Z,25.67
2023-03-01T08:31:43.294Z,23.73
2023-03-01T08:34:18.797Z,24.40
2023-03-01T08:36:47.389Z,25.70
2023-03-01T08:39:19.324Z,25.20
2023-03-01T08:41:50.038Z,24.73
2023-03-01T08:44:26.109Z,25.20
2023-03-01T08:46:59.515Z,25.87
2023-03-01T08:49:27.416Z,25.90
2023-03-01T08:51:57.071Z,26.50
2023-03-01T08:54:23.865Z,25.97
2023-03-01T08:56:52.854Z,25.67
2023-03-01T08:59:26.764Z,25.83
2023-03-01T09:01:54.700Z,25.40
2023-03-01T09:04:27.035Z,25.63
2023-03-01T09:06:56.305Z,25.87
2023-03-01T09:09:28.515Z,25.50
2023-03-01T09:12:21.973Z,26.43
2023-03-01T09:14:48.671Z,24.80
2023-03-01T09:17:22.548Z,25.90
2023-03-01T09:19:51.064Z,25.90
2023-03-01T09:22:17.923Z,28.10
2023-03-01T09:24:44.782Z,26.53
2023-03-01T09:27:14.346Z,26.20
2023-03-01T09:29:49.025Z,26.03
2023-03-01T09:32:15.841Z,24.53
2023-03-01T09:35:01.275Z,24.70
2023-03-01T09:37:29.543Z,24.83
2023-03-01T09:39:58.861Z,25.27
2023-03-01T09:42:32.657Z,24.90
2023-03-01T09:45:06.757Z,23.83
2023-03-01T09:47:36.909Z,24.50
2023-03-01T09:50:19.542Z,24.43
2023-03-01T09:53:04.877Z,23.33
2023-03-01T09:55:44.927Z,24.83
2023-03-01T09:58:40.074Z,24.93
2023-03-01T10:01:33.739Z,24.47
2023-03-01T10:04:22.178Z,23.90
2023-03-01T10:07:14.920Z,22.83
2023-03-01T10:09:43.596Z,23.43
2023-03-01T10:12:19.542Z,23.03
2023-03-01T10:14:57.366Z,20.20
2023-03-01T10:17:34.749Z,19.53
2023-03-01T10:20:31.678Z,19.47
2023-03-01T10:23:00.634Z,19.63
2023-03-01T10:25:30.182Z,21.00
2023-03-01T10:28:03.811Z,24.37
2023-03-01T10:30:39.509Z,21.90
2023-03-01T10:33:44.494Z,23.17
2023-03-01T10:36:14.288Z,21.23
2023-03-01T10:39:02.474Z,22.27
2023-03-01T10:41:33.441Z,21.13
2023-03-01T10:44:07.209Z,22.13
2023-03-01T10:46:51.579Z,21.53
2023-03-01T10:49:23.967Z,21.37
2023-03-01T10:51:53.229Z,21.90
2023-03-01T10:54:22.162Z,20.87
2023-03-01T10:56:57.450Z,21.20
2023-03-01T10:59:35.438Z,21.43
2023-03-01T11:02:30.626Z,21.47
2023-03-01T11:05:02.964Z,20.23
2023-03-01T11:07:42.039Z,18.83
2023-03-01T11:10:19.642Z,19.20
2023-03-01T11:12:46.429Z,19.30
2023-03-01T11:15:32.482Z,18.53
2023-03-01T11:18:13.420Z,17.80
2023-03-01T11:20:47.675Z,17.63
2023-03-01T11:23:19.364Z,18.73
2023-03-01T11:25:57.052Z,18.30
2023-03-01T11:28:27.378Z,19.00
2023-03-01T11:31:08.161Z,18.63
2023-03-01T11:33:51.913Z,18.27
2023-03-01T11:36:36.525Z,17.93
2023-03-01T11:39:20.484Z,18.87
2023-03-01T11:41:59.650Z,17.70
2023-03-01T11:44:44.326Z,17.80
2023-03-01T11:47:59.660Z,18.30
2023-03-01T11:50:50.629Z,17.60
2023-03-01T11:53:35.564Z,17.80
2023-03-01T11:56:10.078Z,17.87
2023-03-01T11:59:06.087Z,18.43
2023-03-01T12:02:13.288Z,18.23
2023-03-01T12:05:05.074Z,18.20
2023-03-01T12:07:51.941Z,18.63
2023-03-01T12:10:29.011Z,19.33
2023-03-01T12:13:16.475Z,20.07
2023-03-01T12:16:13.469Z,19.43
2023-03-01T12:19:09.857Z,20.27
2023-03-01T12:22:18.345Z,19.43
2023-03-01T12:24:49.463Z,18.13
2023-03-01T12:27:41.681Z,20.33
2023-03-01T12:30:41.106Z,18.53
2023-03-01T12:33:31.692Z,20.83
2023-03-01T12:36:42.509Z,19.30
2023-03-01T12:39:37.488Z,18.30
2023-03-01T12:42:49.183Z,18.43
2023-03-01T12:45:52.138Z,19.07
2023-03-01T12:48:28.242Z,19.87
2023-03-01T12:50:58.900Z,19.50
2023-03-01T12:53:37.333Z,18.07
2023-03-01T12:56:27.971Z,17.60
2023-03-01T12:59:18.724Z,18.13
2023-03-01T13:02:07.236Z,17.80
2023-03-01T13:04:55.735Z,18.23
2023-03-01T13:07:39.302Z,20.43
2023-03-01T13:10:29.541Z,18.73
2023-03-01T13:12:58.088Z,18.30
2023-03-01T13:15:24.671Z,18.50
2023-03-01T13:17:55.803Z,17.47
2023-03-01T13:20:27.857Z,17.20
2023-03-01T13:23:22.898Z,18.33
2023-03-01T13:26:16.194Z,17.57
2023-03-01T13:28:45.648Z,17.60
2023-03-01T13:31:26.732Z,17.70
2023-03-01T13:34:09.466Z,18.40
2023-03-01T13:36:38.083Z,16.83
2023-03-01T13:39:28.382Z,17.00
2023-03-01T13:41:57.215Z,15.93
2023-03-01T13:44:29.578Z,14.60
2023-03-01T13:47:08.582Z,15.60
2023-03-01T13:49:49.337Z,14.53
2023-03-01T13:52:40.722Z,13.03
2023-03-01T13:55:50.959Z,12.80
2023-03-01T13:58:27.497Z,13.30
2023-03-01T14:01:02.218Z,14.00
2023-03-01T14:03:33.458Z,13.00
2023-03-01T14:06:15.226Z,13.20
2023-03-01T14:08:43.202Z,12.40
2023-03-01T14:11:48.892Z,13.30
2023-03-01T14:14:42.357Z,14.83
2023-03-01T14:17:39.765Z,15.83
2023-03-01T14:20:30.775Z,16.43
2023-03-01T14:23:09.898Z,14.87
2023-03-01T14:25:37.403Z,15.33
2023-03-01T14:28:23.460Z,14.10
2023-03-01T14:30:52.702Z,15.13
2023-03-01T14:33:26.753Z,14.90
2023-03-01T14:36:08.259Z,14.77
2023-03-01T14:38:44.087Z,13.27
2023-03-01T14:41:27.027Z,12.00
2023-03-01T14:43:59.123Z,12.70
2023-03-01T14:46:37.910Z,12.30
2023-03-01T14:49:10.343Z,11.80
2023-03-01T14:51:41.413Z,11.23
2023-03-01T14:54:35.684Z,11.53
2023-03-01T14:57:07.221Z,11.73
2023-03-01T14:59:35.264Z,10.87
2023-03-01T15:02:06.752Z,11.20
2023-03-01T15:07:20.063Z,12.77
2023-03-01T15:09:50.461Z,13.03
2023-03-01T15:12:31.113Z,12.63
2023-03-01T15:15:04.916Z,12.60
2023-03-01T15:17:35.362Z,12.10
2023-03-01T15:20:09.124Z,12.20
2023-03-01T15:22:49.465Z,13.03
2023-03-01T15:25:18.268Z,13.43
2023-03-01T15:27:48.967Z,14.30
2023-03-01T15:30:24.770Z,14.30
2023-03-01T15:33:25.682Z,14.43
2023-03-01T15:36:10.557Z,14.20
2023-03-01T15:38:57.790Z,13.33
2023-03-01T15:41:28.920Z,13.60
2023-03-01T15:43:56.773Z,14.00
2023-03-01T15:46:27.821Z,13.13
2023-03-01T15:49:08.408Z,13.60
2023-03-01T15:51:38.437Z,13.50
2023-03-01T15:54:24.942Z,13.83
2023-03-01T15:56:53.046Z,14.97
2023-03-01T15:59:20.030Z,18.73
2023-03-01T16:01:51.805Z,16.80
2023-03-01T16:04:28.131Z,13.17
2023-03-01T16:06:55.252Z,14.60
2023-03-01T16:09:28.578Z,11.63
2023-03-01T16:11:57.954Z,11.63
2023-03-01T16:14:24.632Z,12.40
2023-03-01T16:16:51.374Z,12.50
2023-03-01T16:19:19.450Z,13.80
2023-03-01T16:21:50.378Z,12.17
2023-03-01T16:24:19.458Z,12.57
2023-03-01T16:26:50.002Z,11.33
2023-03-01T16:29:17.210Z,12.90
2023-03-01T16:31:48.984Z,11.93
2023-03-01T16:34:18.232Z,11.33
2023-03-01T16:36:50.246Z,11.17
2023-03-01T16:39:18.287Z,11.10
2023-03-01T16:41:50.920Z,11.10
2023-03-01T16:44:17.751Z,11.00
2023-03-01T16:46:44.581Z,11.70
2023-03-01T16:49:11.258Z,11.47
2023-03-01T16:51:41.061Z,11.73
2023-03-01T16:54:10.300Z,11.37
2023-03-01T16:56:42.244Z,11.40
2023-03-01T16:59:09.017Z,11.63
2023-03-01T17:01:41.805Z,12.10
2023-03-01T17:04:14.495Z,12.10
2023-03-01T17:06:44.343Z,12.27
2023-03-01T17:09:11.152Z,11.87
2023-03-01T17:11:38.896Z,11.80
2023-03-01T17:14:05.639Z,13.03
2023-03-01T17:16:34.601Z,12.43
2023-03-01T17:19:05.155Z,12.40
2023-03-01T17:21:40.871Z,11.83
2023-03-01T17:24:10.349Z,11.70
2023-03-01T17:26:41.763Z,12.00
2023-03-01T17:29:10.660Z,12.47
2023-03-01T17:31:45.080Z,12.10
2023-03-01T17:34:16.100Z,12.87
2023-03-01T17:36:46.848Z,13.00
2023-03-01T17:39:18.243Z,13.27
2023-03-01T17:41:49.172Z,14.30
2023-03-01T17:44:18.999Z,13.23
2023-03-01T17:46:46.251Z,13.50
2023-03-01T17:49:17.084Z,13.47
2023-03-01T17:51:52.162Z,13.43
2023-03-01T17:54:21.340Z,13.83
2023-03-01T17:56:51.807Z,13.53
2023-03-01T17:59:19.996Z,14.20
2023-03-01T18:01:47.226Z,13.20
2023-03-01T18:04:32.690Z,14.47
2023-03-01T18:07:02.278Z,12.93
2023-03-01T18:09:33.040Z,12.80
2023-03-01T18:12:03.941Z,13.47
2023-03-01T18:14:33.933Z,12.63
2023-03-01T18:17:03.881Z,13.20
2023-03-01T18:19:35.396Z,13.80
2023-03-01T18:22:02.100Z,13.03
2023-03-01T18:24:28.983Z,12.87
2023-03-01T18:26:55.965Z,13.53
2023-03-01T18:29:25.236Z,14.07
2023-03-01T18:32:04.394Z,13.80
2023-03-01T18:34:35.103Z,14.47
2023-03-01T18:37:09.489Z,14.10
2023-03-01T18:39:38.138Z,14.33
2023-03-01T18:42:06.328Z,14.40
2023-03-01T18:44:39.276Z,14.43
2023-03-01T18:47:12.148Z,13.90
2023-03-01T18:49:39.062Z,14.13
2023-03-01T18:52:08.269Z,14.43
2023-03-01T18:54:37.882Z,14.80
2023-03-01T18:57:09.251Z,14.20
2023-03-01T18:59:36.494Z,13.47
2023-03-01T19:02:06.179Z,14.30
2023-03-01T19:04:33.246Z,14.93
2023-03-01T19:07:05.076Z,13.90
2023-03-01T19:09:34.044Z,14.83
2023-03-01T19:12:03.547Z,14.37
2023-03-01T19:14:38.736Z,15.27
2023-03-01T19:17:07.958Z,16.37
2023-03-01T19:19:36.243Z,15.93
2023-03-01T19:22:06.121Z,15.33
2023-03-01T19:24:33.537Z,15.87
2023-03-01T19:27:00.183Z,15.00
2023-03-01T19:29:30.131Z,15.13
2023-03-01T19:31:59.349Z,14.77
2023-03-01T19:34:26.380Z,14.50
2023-03-01T19:36:53.397Z,14.63
2023-03-01T19:39:21.009Z,15.33
2023-03-01T19:41:50.262Z,14.73
2023-03-01T19:44:24.999Z,15.47
2023-03-01T19:46:57.351Z,15.50
2023-03-01T19:49:30.223Z,15.10
2023-03-01T19:51:56.873Z,16.73
2023-03-01T19:54:26.404Z,16.13
2023-03-01T19:56:56.199Z,15.67
2023-03-01T19:59:34.182Z,15.47
2023-03-01T20:02:01.499Z,15.33
2023-03-01T20:04:30.143Z,17.50
2023-03-01T20:06:59.548Z,16.23
2023-03-01T20:09:26.199Z,15.67
2023-03-01T20:11:53.240Z,15.47
2023-03-01T20:14:23.695Z,16.60
2023-03-01T20:16:51.105Z,16.27
2023-03-01T20:19:20.899Z,16.13
2023-03-01T20:21:49.910Z,16.07
2023-03-01T20:24:22.697Z,16.30
2023-03-01T20:26:51.316Z,16.47
2023-03-01T20:29:21.169Z,15.80
2023-03-01T20:31:47.800Z,15.77
2023-03-01T20:34:27.257Z,16.40
2023-03-01T20:36:56.829Z,16.57
2023-03-01T20:39:29.401Z,16.10
2023-03-01T20:42:01.272Z,16.40
2023-03-01T20:44:28.969Z,15.70
2023-03-01T20:46:56.113Z,16.27
2023-03-01T20:49:40.893Z,16.23
2023-03-01T20:52:08.459Z,17.03
2023-03-01T20:54:38.461Z,16.57
2023-03-01T20:57:06.934Z,16.07
2023-03-01T20:59:34.939Z,15.63
2023-03-01T21:02:01.695Z,16.40
2023-03-01T21:04:28.301Z,16.70
2023-03-01T21:06:57.373Z,16.93
2023-03-01T21:09:30.297Z,16.83
2023-03-01T21:12:03.046Z,16.87
2023-03-01T21:14:42.343Z,17.03
2023-03-01T21:17:14.432Z,16.67
2023-03-01T21:19:46.840Z,16.07
2023-03-01T21:22:15.297Z,16.97
2023-03-01T21:24:42.453Z,16.57
2023-03-01T21:27:11.143Z,17.03
2023-03-01T21:29:43.868Z,17.87
2023-03-01T21:32:12.020Z,16.10
2023-03-01T21:34:44.943Z,17.47
2023-03-01T21:37:11.948Z,16.10
2023-03-01T21:39:39.102Z,17.33
2023-03-01T21:42:07.307Z,17.27
2023-03-01T21:44:34.294Z,17.00
2023-03-01T21:47:04.098Z,18.33
2023-03-01T21:49:30.863Z,18.07
2023-03-01T21:51:59.081Z,17.30
2023-03-01T21:54:25.940Z,18.43
2023-03-01T21:56:55.050Z,17.47
2023-03-01T21:59:32.495Z,17.97
2023-03-01T22:02:06.438Z,19.37
2023-03-01T22:04:34.627Z,18.33
2023-03-01T22:07:01.268Z,20.67
2023-03-01T22:09:39.865Z,19.07
2023-03-01T22:12:06.783Z,20.70
2023-03-01T22:14:36.159Z,21.23
2023-03-01T22:17:02.995Z,21.00
2023-03-01T22:19:30.291Z,21.33
2023-03-01T22:21:56.942Z,20.70
2023-03-01T22:24:30.094Z,21.17
2023-03-01T22:27:02.176Z,21.73
2023-03-01T22:29:34.409Z,22.27
2023-03-01T22:32:03.535Z,22.47
2023-03-01T22:34:35.981Z,22.27
2023-03-01T22:37:05.346Z,22.70
2023-03-01T22:39:35.378Z,22.90
2023-03-01T22:42:06.067Z,23.20
2023-03-01T22:44:32.753Z,23.70
2023-03-01T22:47:03.500Z,22.97
2023-03-01T22:49:36.160Z,23.33
2023-03-01T22:52:02.977Z,22.47
2023-03-01T22:54:29.575Z,23.13
2023-03-01T22:56:56.328Z,23.30
2023-03-01T22:59:24.071Z,24.13
2023-03-01T23:01:53.320Z,23.97
2023-03-01T23:04:26.447Z,23.00
2023-03-01T23:06:56.112Z,23.87
2023-03-01T23:09:33.077Z,23.20
2023-03-01T23:12:06.712Z,24.07
2023-03-01T23:14:38.711Z,24.53
2023-03-01T23:17:08.217Z,25.80
2023-03-01T23:19:38.419Z,25.00
2023-03-01T23:22:06.672Z,23.70
2023-03-01T23:24:35.129Z,23.90
2023-03-01T23:27:02.632Z,25.07
2023-03-01T23:29:30.146Z,24.07
2023-03-01T23:31:57.730Z,23.97
2023-03-01T23:34:30.213Z,24.43
2023-03-01T23:36:58.656Z,25.70
2023-03-01T23:39:31.177Z,24.97
2023-03-01T23:41:58.377Z,25.77
2023-03-01T23:44:34.136Z,24.70
2023-03-01T23:47:06.992Z,23.83
2023-03-01T23:49:36.010Z,25.27
2023-03-01T23:52:02.699Z,24.60
2023-03-01T23:54:32.597Z,25.33
2023-03-01T23:57:02.048Z,25.07
2023-03-01T23:59:29.726Z,26.53
